Time;durP1;ratioP1;P1;durP2;ratioP2;P2;SDS_P1;SDS_P2;PMS_P1;PMS_P2;Temp;Humidity;BMP_temperature;BMP_pressure;BME280_temperature;BME280_humidity;BME280_pressure;Samples;Min_cycle;Max_cycle;Signal;HPM_P1;HPM_P2
2022/08/19 00:02:02;;;;;;;31.52;20.90;;;;;;;17.43;99.18;101326.13;6241662;23;20000;-87
2022/08/19 00:04:32;;;;;;;28.80;19.88;;;;;;;17.40;99.85;101321.00;6241706;23;20011;-87
2022/08/19 00:06:58;;;;;;;29.73;20.35;;;;;;;17.37;99.81;101323.78;6242014;23;20012;-88
2022/08/19 00:09:24;;;;;;;31.73;20.52;;;;;;;17.31;99.57;101317.03;6242612;23;20014;-87
2022/08/19 00:11:50;;;;;;;29.23;20.02;;;;;;;17.29;99.70;101321.50;6242283;23;20019;-88
2022/08/19 00:14:17;;;;;;;31.35;20.52;;;;;;;17.25;99.72;101313.84;6241612;23;20079;-87
2022/08/19 00:16:45;;;;;;;29.45;20.55;;;;;;;17.27;99.96;101322.47;6241245;23;20000;-88
2022/08/19 00:19:11;;;;;;;33.45;22.00;;;;;;;17.25;100.00;101317.31;6241928;23;20027;-87
2022/08/19 00:21:39;;;;;;;30.58;21.67;;;;;;;17.24;100.00;101315.59;6242175;23;20048;-87
2022/08/19 00:24:09;;;;;;;29.38;20.40;;;;;;;17.25;100.00;101313.84;6242209;23;20035;-87
2022/08/19 00:26:35;;;;;;;32.35;20.90;;;;;;;17.24;100.00;101317.38;6241362;23;20499;-87
2022/08/19 00:29:01;;;;;;;32.60;21.30;;;;;;;17.22;100.00;101311.34;6242490;23;20332;-87
2022/08/19 00:31:27;;;;;;;28.95;20.88;;;;;;;17.21;100.00;101314.88;6214551;23;20429;-87
2022/08/19 00:33:53;;;;;;;30.30;20.55;;;;;;;17.22;100.00;101316.59;6242139;23;20003;-88
2022/08/19 00:36:18;;;;;;;32.25;20.98;;;;;;;17.16;100.00;101324.72;6241999;23;20014;-88
2022/08/19 00:38:44;;;;;;;30.73;21.00;;;;;;;17.13;100.00;101323.06;6242447;23;19999;-88
2022/08/19 00:41:14;;;;;;;32.28;22.15;;;;;;;17.12;100.00;101324.00;6241236;23;20337;-87
2022/08/19 00:43:40;;;;;;;33.25;21.75;;;;;;;17.14;100.00;101332.63;6214800;23;20012;-87
2022/08/19 00:46:06;;;;;;;32.08;22.17;;;;;;;17.13;100.00;101330.06;6241465;23;20004;-87
2022/08/19 00:48:33;;;;;;;32.72;21.30;;;;;;;17.11;100.00;101329.31;6242200;23;20011;-87
2022/08/19 00:50:59;;;;;;;34.58;21.85;;;;;;;17.10;100.00;101324.97;6242152;23;20325;-87
2022/08/19 00:53:28;;;;;;;31.65;21.05;;;;;;;17.07;100.00;101328.56;6214861;23;20493;-87
2022/08/19 00:55:56;;;;;;;30.67;20.95;;;;;;;17.05;100.00;101326.94;6241472;23;20006;-87
2022/08/19 00:58:27;;;;;;;34.42;21.88;;;;;;;17.04;100.00;101327.88;6241128;23;20011;-87
2022/08/19 01:00:52;;;;;;;33.25;21.80;;;;;;;17.02;100.00;101327.06;6239148;23;20004;-87
2022/08/19 01:03:20;;;;;;;33.70;22.13;;;;;;;17.02;100.00;101324.44;6240789;23;20030;-87
2022/08/19 01:05:49;;;;;;;34.30;22.25;;;;;;;16.99;100.00;101317.56;6242016;23;20007;-87
2022/08/19 01:08:16;;;;;;;36.35;23.00;;;;;;;16.98;100.00;101308.03;6241771;23;20114;-87
2022/08/19 01:10:45;;;;;;;34.72;21.65;;;;;;;16.99;100.00;101314.94;6241535;23;20004;-88
2022/08/19 01:13:18;;;;;;;36.08;23.25;;;;;;;17.01;100.00;101322.75;6240984;23;20018;-87
2022/08/19 01:15:51;;;;;;;35.25;22.15;;;;;;;17.02;100.00;101319.22;6214259;23;20007;-87
2022/08/19 01:18:20;;;;;;;36.97;22.92;;;;;;;17.02;100.00;101327.06;6241675;23;20000;-87
2022/08/19 01:20:46;;;;;;;36.03;22.23;;;;;;;17.02;100.00;101322.69;6241113;23;20007;-87
2022/08/19 01:23:12;;;;;;;37.33;23.42;;;;;;;16.99;100.00;101322.81;6241576;23;20042;-87
2022/08/19 01:25:54;;;;;;;36.03;22.65;;;;;;;16.99;100.00;101317.56;6241061;23;20027;-87
2022/08/19 01:28:27;;;;;;;32.78;20.83;;;;;;;16.97;100.00;101325.50;6214279;23;20010;-87
2022/08/19 01:30:53;;;;;;;35.97;22.02;;;;;;;16.96;100.00;101323.81;6241010;23;20007;-87
2022/08/19 01:33:19;;;;;;;37.15;23.35;;;;;;;16.90;100.00;101316.22;6214191;23;20338;-87
2022/08/19 01:35:45;;;;;;;38.53;22.65;;;;;;;16.90;100.00;101317.97;6240875;23;20443;-88
2022/08/19 01:38:23;;;;;;;36.75;22.63;;;;;;;16.88;100.00;101319.78;6240978;23;20083;-87
2022/08/19 01:40:48;;;;;;;36.40;22.23;;;;;;;16.88;100.00;101317.19;6241742;23;20075;-88
2022/08/19 01:43:14;;;;;;;33.80;20.77;;;;;;;16.88;100.00;101322.41;6241403;22;20035;-88
2022/08/19 01:45:40;;;;;;;33.80;20.95;;;;;;;16.88;100.00;101325.03;6214438;23;20274;-87
2022/08/19 01:48:09;;;;;;;30.65;20.27;;;;;;;16.85;100.00;101326.03;6213020;23;20031;-87
2022/08/19 01:50:35;;;;;;;35.92;22.80;;;;;;;16.82;100.00;101323.53;6241202;23;20004;-88
2022/08/19 01:53:03;;;;;;;38.67;22.48;;;;;;;16.81;100.00;101324.44;6214647;23;20026;-87
2022/08/19 01:55:28;;;;;;;34.90;21.15;;;;;;;16.81;100.00;101328.81;6214460;23;20008;-88
2022/08/19 01:57:57;;;;;;;36.97;21.58;;;;;;;16.80;100.00;101332.34;6241672;23;20543;-87
2022/08/19 02:00:25;;;;;;;38.22;21.77;;;;;;;16.78;100.00;101332.44;6241246;23;20084;-87
2022/08/19 02:02:51;;;;;;;39.00;23.35;;;;;;;16.74;100.00;101338.69;6240246;23;20076;-87
2022/08/19 02:05:17;;;;;;;35.92;20.95;;;;;;;16.73;100.00;101334.38;6213980;23;20043;-87
2022/08/19 02:07:44;;;;;;;32.53;20.23;;;;;;;16.73;100.00;101342.22;6214375;23;20453;-88
2022/08/19 02:10:14;;;;;;;31.92;20.15;;;;;;;16.71;100.00;101343.22;6240629;23;20007;-87
2022/08/19 02:12:39;;;;;;;32.88;20.80;;;;;;;16.64;100.00;101332.16;6241847;23;20000;-87
2022/08/19 02:15:06;;;;;;;30.50;19.73;;;;;;;16.63;100.00;101340.06;6243707;23;20314;-87
2022/08/19 02:17:32;;;;;;;29.98;18.23;;;;;;;16.59;100.00;101336.66;6242728;23;20054;-87
2022/08/19 02:19:58;;;;;;;31.20;19.00;;;;;;;16.53;100.00;101342.16;6215825;23;20004;-87
2022/08/19 02:22:25;;;;;;;31.27;19.00;;;;;;;16.49;100.00;101343.19;6242953;23;20000;-87
2022/08/19 02:24:51;;;;;;;32.75;19.33;;;;;;;16.43;100.00;101335.59;6242680;23;20023;-87
2022/08/19 02:27:16;;;;;;;35.80;19.25;;;;;;;16.40;100.00;101328.72;6242423;23;20004;-87
2022/08/19 02:29:42;;;;;;;29.33;18.80;;;;;;;16.32;100.00;101335.16;6242255;23;20202;-87
2022/08/19 02:32:07;;;;;;;31.33;19.35;;;;;;;16.30;100.00;101334.38;6242262;23;20004;-87
2022/08/19 02:34:33;;;;;;;30.80;19.40;;;;;;;16.23;100.00;101346.84;6242470;23;20022;-87
2022/08/19 02:36:59;;;;;;;30.80;19.05;;;;;;;16.24;100.00;101355.56;6216174;23;20011;-88
2022/08/19 02:39:26;;;;;;;31.10;19.35;;;;;;;16.18;100.00;101352.25;6216022;23;20395;-87
2022/08/19 02:41:51;;;;;;;30.40;19.67;;;;;;;16.24;100.00;101347.72;6241989;22;20054;-87
2022/08/19 02:44:17;;;;;;;32.08;19.85;;;;;;;16.15;100.00;101348.91;6215374;23;20008;-88
2022/08/19 02:46:49;;;;;;;32.08;20.15;;;;;;;16.16;100.00;101354.09;6216010;23;20007;-87
2022/08/19 02:49:16;;;;;;;34.22;21.42;;;;;;;16.12;100.00;101357.72;6242030;23;20075;-88
2022/08/19 02:51:43;;;;;;;36.80;21.60;;;;;;;16.10;100.00;101358.72;6215518;23;20027;-88
2022/08/19 02:54:10;;;;;;;36.10;22.75;;;;;;;16.12;100.00;101356.88;6242671;23;20012;-87
2022/08/19 02:56:37;;;;;;;39.45;22.38;;;;;;;16.12;100.00;101367.31;6242478;23;19996;-87
2022/08/19 02:59:10;;;;;;;37.28;22.52;;;;;;;16.08;100.00;101360.53;6242204;23;20079;-87
2022/08/19 03:01:36;;;;;;;37.60;21.90;;;;;;;16.09;100.00;101360.47;6215783;23;20007;-87
2022/08/19 03:04:04;;;;;;;36.10;21.38;;;;;;;16.05;100.00;101364.09;6241998;23;20453;-88
2022/08/19 03:06:30;;;;;;;37.90;22.20;;;;;;;16.04;100.00;101353.69;6242551;23;20008;-87
2022/08/19 03:08:57;;;;;;;38.47;21.70;;;;;;;16.04;100.00;101356.28;6216081;23;20028;-88
2022/08/19 03:11:29;;;;;;;34.17;20.63;;;;;;;16.06;100.00;101351.88;6242141;23;20004;-87
2022/08/19 03:13:55;;;;;;;38.38;22.65;;;;;;;16.03;100.00;101352.00;6241344;23;20008;-87
2022/08/19 03:16:22;;;;;;;37.03;21.52;;;;;;;15.99;100.00;101351.25;6215261;23;20062;-87
2022/08/19 03:18:48;;;;;;;34.10;20.90;;;;;;;15.97;100.00;101350.44;6242858;23;20110;-87
2022/08/19 03:21:20;;;;;;;36.25;21.08;;;;;;;16.01;100.00;101362.50;6216016;23;20000;-88
2022/08/19 03:23:45;;;;;;;36.35;20.95;;;;;;;16.02;100.00;101353.75;6242161;23;20023;-88
2022/08/19 03:26:11;;;;;;;36.05;20.23;;;;;;;15.95;100.00;101364.50;6242492;23;20008;-88
2022/08/19 03:28:37;;;;;;;35.05;20.73;;;;;;;15.96;100.00;101354.00;6241637;23;20042;-87
2022/08/19 03:31:09;;;;;;;36.25;20.95;;;;;;;15.95;100.00;101354.91;6241996;23;20004;-87
2022/08/19 03:33:35;;;;;;;40.78;20.98;;;;;;;15.92;100.00;101359.38;6242349;23;20117;-88
2022/08/19 03:36:03;;;;;;;35.13;19.80;;;;;;;15.88;100.00;101365.66;6242557;23;20090;-88
2022/08/19 03:38:29;;;;;;;37.22;20.77;;;;;;;15.89;100.00;101367.34;6242617;23;20753;-88
2022/08/19 03:40:54;;;;;;;39.55;21.35;;;;;;;15.87;100.00;101364.78;6242033;23;20093;-87
2022/08/19 03:43:19;;;;;;;35.20;20.58;;;;;;;15.85;100.00;101348.31;6241342;22;20084;-88
2022/08/19 03:45:45;;;;;;;36.53;20.80;;;;;;;15.83;100.00;101354.50;6242226;23;20011;-87
2022/08/19 03:48:10;;;;;;;37.83;21.70;;;;;;;15.86;100.00;101352.63;6214969;23;20232;-88
2022/08/19 03:50:40;;;;;;;36.88;20.33;;;;;;;15.83;100.00;101347.50;6242123;23;20309;-88
2022/08/19 03:53:07;;;;;;;40.58;22.02;;;;;;;15.82;100.00;101355.44;6241933;23;20004;-88
2022/08/19 03:55:32;;;;;;;36.88;20.65;;;;;;;15.78;100.00;101344.22;6214536;23;20085;-87
2022/08/19 03:57:58;;;;;;;35.67;20.65;;;;;;;15.76;100.00;101343.44;6242342;23;20333;-87
2022/08/19 04:00:23;;;;;;;37.13;20.17;;;;;;;15.75;100.00;101345.19;6214355;23;20004;-88
2022/08/19 04:02:48;;;;;;;35.90;20.53;;;;;;;15.74;100.00;101342.63;6241727;23;19996;-88
2022/08/19 04:05:14;;;;;;;36.73;20.17;;;;;;;15.73;100.00;101351.38;6215276;23;20269;-88
2022/08/19 04:07:40;;;;;;;43.17;22.35;;;;;;;15.72;100.00;101354.91;6242207;23;20239;-87
2022/08/19 04:10:05;;;;;;;41.67;22.23;;;;;;;15.72;100.00;101360.97;6214338;23;20011;-87
2022/08/19 04:12:31;;;;;;;38.78;20.35;;;;;;;15.71;100.00;101356.66;6241646;23;21269;-88
2022/08/19 04:14:56;;;;;;;33.08;19.48;;;;;;;15.66;100.00;101355.13;6241785;23;20024;-87
2022/08/19 04:17:22;;;;;;;37.80;20.70;;;;;;;15.65;100.00;101351.66;6241230;23;20310;-88
2022/08/19 04:19:47;;;;;;;37.00;20.35;;;;;;;15.60;100.00;101344.91;6215460;23;20011;-88
2022/08/19 04:22:12;;;;;;;36.67;20.27;;;;;;;15.58;100.00;101347.56;6242053;23;20038;-88
2022/08/19 04:24:38;;;;;;;35.80;20.20;;;;;;;15.58;100.00;101352.78;6209538;23;20294;-88
2022/08/19 04:27:05;;;;;;;34.38;19.65;;;;;;;15.55;100.00;101354.66;6211635;23;20235;-88
2022/08/19 04:29:30;;;;;;;36.88;20.65;;;;;;;15.53;100.00;101349.50;6211456;23;20004;-88
2022/08/19 04:31:57;;;;;;;35.15;19.48;;;;;;;15.53;100.00;101349.50;6209700;23;20051;-88
2022/08/19 04:34:25;;;;;;;33.53;19.23;;;;;;;15.51;100.00;101340.81;6210022;23;20009;-88
2022/08/19 04:36:53;;;;;;;35.50;19.55;;;;;;;15.51;100.00;101343.44;6211421;23;20016;-88
2022/08/19 04:42:38;;;;;;;32.35;18.58;;;;;;;15.48;100.00;101338.34;6211445;23;20000;-88
2022/08/19 04:44:54;;;;;;;31.85;18.70;;;;;;;15.44;100.00;101339.34;6210932;23;20020;-88
2022/08/19 04:47:19;;;;;;;36.92;19.55;;;;;;;15.44;100.00;101339.34;6209904;23;20000;-88
2022/08/19 04:49:44;;;;;;;34.83;19.60;;;;;;;15.46;100.00;101341.91;6210034;23;20030;-88
2022/08/19 04:52:09;;;;;;;32.30;19.00;;;;;;;15.48;100.00;101345.31;6210983;23;20252;-88
2022/08/19 04:54:35;;;;;;;34.13;19.93;;;;;;;15.48;100.00;101338.34;6211221;23;20589;-88
2022/08/19 04:57:00;;;;;;;34.55;19.80;;;;;;;15.50;100.00;101346.09;6211046;23;20242;-88
2022/08/19 04:59:26;;;;;;;37.75;19.50;;;;;;;15.48;100.00;101348.78;6210025;23;20004;-87
2022/08/19 05:01:51;;;;;;;34.80;19.33;;;;;;;15.43;100.00;101356.75;6208290;23;19996;-88
2022/08/19 05:04:20;;;;;;;34.20;19.97;;;;;;;15.47;100.00;101364.50;6211245;23;20533;-88
2022/08/19 05:06:47;;;;;;;34.28;19.65;;;;;;;15.48;100.00;101361.00;6211115;23;20232;-88
2022/08/19 05:09:15;;;;;;;35.30;20.75;;;;;;;15.49;100.00;101363.53;6210576;23;20010;-88
2022/08/19 05:11:40;;;;;;;34.78;20.13;;;;;;;15.47;100.00;101372.34;6209048;23;20058;-88
2022/08/19 05:14:06;;;;;;;34.63;20.10;;;;;;;15.46;100.00;101368.88;6210845;23;20378;-88
2022/08/19 05:16:32;;;;;;;36.63;20.27;;;;;;;15.43;100.00;101374.19;6211183;23;20011;-89
2022/08/19 05:24:26;;;;;;;37.47;21.77;;;;;;;15.49;100.00;101376.59;6229565;23;20075;-88
2022/08/19 05:26:56;;;;;;;37.63;23.25;;;;;;;15.53;100.00;101382.59;6240822;23;20087;-89
2022/08/19 05:29:24;;;;;;;37.78;22.30;;;;;;;15.62;100.00;101379.69;6241243;23;20008;-88
2022/08/19 05:31:50;;;;;;;40.17;23.45;;;;;;;15.64;100.00;101391.75;6240502;23;20079;-88
2022/08/19 05:34:17;;;;;;;42.15;23.60;;;;;;;15.71;100.00;101397.63;6241013;23;20043;-88
2022/08/19 05:36:44;;;;;;;45.35;25.70;;;;;;;15.73;100.00;101398.44;6241604;23;20099;-88
2022/08/19 05:39:15;;;;;;;46.22;25.63;;;;;;;15.77;100.00;101406.09;6213960;23;20326;-88
2022/08/19 05:41:46;;;;;;;51.05;28.15;;;;;;;15.82;100.00;101399.88;6241187;23;20004;-88
2022/08/19 05:44:11;;;;;;;51.53;27.83;;;;;;;15.89;100.00;101399.59;6213038;23;20087;-88
2022/08/19 05:46:39;;;;;;;73.53;35.58;;;;;;;15.97;100.00;101396.66;6240385;23;20004;-88
2022/08/19 05:49:06;;;;;;;66.97;33.47;;;;;;;16.05;100.00;101405.09;6241093;23;20011;-89
2022/08/19 05:51:34;;;;;;;70.90;35.42;;;;;;;16.12;100.00;101401.31;6240586;23;20477;-88
2022/08/19 05:53:59;;;;;;;81.03;37.85;;;;;;;16.16;100.00;101400.31;6212601;23;20008;-88
2022/08/19 05:56:25;;;;;;;87.30;41.28;;;;;;;16.24;100.00;101400.03;6214424;23;20008;-88
2022/08/19 05:58:50;;;;;;;90.45;41.17;;;;;;;16.31;100.00;101393.66;6240921;23;20004;-88
2022/08/19 06:01:17;;;;;;;94.87;41.07;;;;;;;16.38;100.00;101395.94;6240571;23;20445;-88
2022/08/19 06:03:43;;;;;;;90.88;41.55;;;;;;;16.42;100.00;101389.69;6240174;23;20241;-88
2022/08/19 06:06:13;;;;;;;86.93;40.42;;;;;;;16.50;100.00;101398.09;6241776;23;20063;-88
2022/08/19 06:08:39;;;;;;;89.43;41.03;;;;;;;16.57;100.00;101389.09;6213824;23;20311;-88
2022/08/19 06:11:24;;;;;;;85.40;39.72;;;;;;;16.64;100.00;101383.66;6213303;23;20102;-88
2022/08/19 06:13:52;;;;;;;78.43;38.67;;;;;;;16.69;100.00;101386.94;6240814;23;20000;-88
2022/08/19 06:16:22;;;;;;;86.95;40.38;;;;;;;16.78;100.00;101386.56;6241447;23;20007;-88
2022/08/19 06:18:51;;;;;;;85.50;38.97;;;;;;;16.82;100.00;101386.38;6212108;23;20376;-87
2022/08/19 06:21:16;;;;;;;91.18;40.00;;;;;;;16.87;100.00;101384.41;6213435;23;20007;-88
2022/08/19 06:23:42;;;;;;;82.95;40.30;;;;;;;16.95;100.00;101386.72;6237510;23;20517;-88
2022/08/19 06:26:11;;;;;;;84.82;38.63;;;;;;;16.99;100.00;101393.53;6240735;23;20004;-88
2022/08/19 06:28:42;;;;;;;85.53;38.65;;;;;;;17.06;100.00;101396.75;6240581;23;20060;-84
2022/08/19 06:31:08;;;;;;;83.35;39.50;;;;;;;17.11;100.00;101400.03;6240633;23;20573;-84
2022/08/19 06:33:33;;;;;;;81.68;36.75;;;;;;;17.16;100.00;101385.81;6240658;23;20054;-84
2022/08/19 06:35:58;;;;;;;85.00;38.70;;;;;;;17.22;100.00;101384.72;6240771;23;20035;-84
2022/08/19 06:38:24;;;;;;;82.77;38.40;;;;;;;17.26;100.00;101375.81;6240168;23;20047;-84
2022/08/19 06:40:49;;;;;;;80.10;37.47;;;;;;;17.28;100.00;101377.44;6240398;23;20289;-84
2022/08/19 06:43:15;;;;;;;84.07;37.58;;;;;;;17.32;100.00;101380.78;6240843;22;20000;-84
2022/08/19 06:45:40;;;;;;;73.95;36.45;;;;;;;17.40;100.00;101388.31;6240968;23;20014;-84
2022/08/19 06:48:07;;;;;;;75.90;36.20;;;;;;;17.48;100.00;101387.06;6238651;23;20008;-84
2022/08/19 06:50:32;;;;;;;81.65;36.50;;;;;;;17.56;100.00;101392.81;6211937;23;20038;-85
2022/08/19 06:52:57;;;;;;;78.15;37.53;;;;;;;17.63;100.00;101391.66;6238341;23;20000;-84
2022/08/19 06:55:23;;;;;;;80.23;37.70;;;;;;;17.76;100.00;101390.19;6237479;23;20004;-84
2022/08/19 06:57:52;;;;;;;80.20;37.05;;;;;;;17.91;100.00;101390.44;6238711;23;20261;-84
2022/08/19 07:00:18;;;;;;;78.13;36.30;;;;;;;18.05;100.00;101399.38;6238354;23;20004;-84
2022/08/19 07:02:44;;;;;;;76.80;35.70;;;;;;;18.15;99.36;101400.63;6213504;23;20011;-85
2022/08/19 07:05:10;;;;;;;70.50;33.95;;;;;;;18.24;99.70;101390.66;6240220;23;20661;-84
2022/08/19 07:07:35;;;;;;;73.03;36.22;;;;;;;18.29;98.70;101388.66;6213398;23;20260;-84
2022/08/19 07:10:01;;;;;;;68.78;34.17;;;;;;;18.32;97.57;101384.13;6236554;23;20011;-84
2022/08/19 07:12:34;;;;;;;74.15;34.40;;;;;;;18.37;98.58;101386.53;6239194;23;20035;-84
2022/08/19 07:14:59;;;;;;;74.80;35.85;;;;;;;18.44;97.46;101386.16;6239766;23;20008;-84
2022/08/19 07:17:25;;;;;;;76.30;35.20;;;;;;;18.52;97.45;101394.53;6214371;23;20031;-84
2022/08/19 07:19:50;;;;;;;69.30;34.55;;;;;;;18.57;96.75;101389.06;6240974;23;20016;-84
2022/08/19 07:22:16;;;;;;;73.57;36.43;;;;;;;18.63;97.11;101399.28;6239275;23;20050;-84
2022/08/19 07:24:42;;;;;;;76.47;35.90;;;;;;;18.63;96.51;101401.91;6239928;23;20251;-84
2022/08/19 07:27:09;;;;;;;71.67;33.90;;;;;;;18.67;96.55;101403.47;6214305;23;20010;-84
2022/08/19 07:29:36;;;;;;;70.90;35.53;;;;;;;18.73;96.83;101402.31;6241772;23;20284;-84
2022/08/19 07:32:03;;;;;;;73.07;36.15;;;;;;;18.81;97.01;101408.06;6213941;23;20004;-84
2022/08/19 07:34:30;;;;;;;77.03;36.70;;;;;;;18.93;95.81;101412.72;6240876;23;20337;-84
2022/08/19 07:36:56;;;;;;;82.07;37.40;;;;;;;19.04;95.21;101410.38;6241436;23;20422;-83
2022/08/19 07:39:25;;;;;;;76.90;36.67;;;;;;;19.12;94.72;101416.13;6240799;23;20010;-87
2022/08/19 07:41:51;;;;;;;71.95;36.53;;;;;;;19.24;94.62;101412.88;6242068;22;20000;-87
2022/08/19 07:44:19;;;;;;;73.63;37.08;;;;;;;19.28;94.59;101410.94;6214728;23;20015;-87
2022/08/19 07:46:48;;;;;;;75.93;38.75;;;;;;;19.35;94.03;101425.50;6215206;23;20072;-87
2022/08/19 07:49:18;;;;;;;77.55;38.08;;;;;;;19.38;93.16;101420.06;6241909;23;20034;-87
2022/08/19 07:52:05;;;;;;;73.43;38.00;;;;;;;19.41;95.15;101422.53;6241237;23;20007;-87
2022/08/19 07:54:34;;;;;;;76.63;38.50;;;;;;;19.47;93.33;101430.16;6214541;23;20819;-87
2022/08/19 07:57:00;;;;;;;71.72;36.72;;;;;;;19.53;91.38;101428.97;6215417;23;20371;-87
2022/08/19 07:59:26;;;;;;;67.60;35.60;;;;;;;19.55;91.66;101430.59;6242110;23;20377;-88
2022/08/19 08:01:52;;;;;;;72.32;37.03;;;;;;;19.55;91.96;101421.88;6242313;23;20572;-87
2022/08/19 08:09:48;;;;;;;71.55;36.55;;;;;;;20.12;91.11;101428.47;6240780;23;20019;-87
2022/08/19 08:12:18;;;;;;;71.60;36.45;;;;;;;20.39;89.93;101436.69;6214747;23;20004;-87
2022/08/19 08:14:50;;;;;;;69.95;35.10;;;;;;;20.49;87.43;101443.13;6215257;23;20004;-87
2022/08/19 08:17:19;;;;;;;63.22;33.33;;;;;;;20.54;87.94;101450.78;6214841;23;20099;-87
2022/08/19 08:19:45;;;;;;;59.28;30.70;;;;;;;20.58;86.92;101449.69;6242239;23;20004;-88
2022/08/19 08:23:22;;;;;;;64.00;33.03;;;;;;;20.67;87.08;101446.53;6241116;23;20026;-88
2022/08/19 08:25:11;;;;;;;62.15;31.77;;;;;;;20.91;87.89;101447.78;6239945;23;20035;-88
2022/08/19 08:27:42;;;;;;;61.53;33.22;;;;;;;21.11;85.12;101449.25;6242193;23;20008;-87
2022/08/19 08:30:14;;;;;;;59.53;32.70;;;;;;;21.28;85.06;101457.94;6242012;23;20003;-87
2022/08/19 08:32:40;;;;;;;62.75;32.55;;;;;;;21.48;83.77;101463.81;6241949;23;20350;-87
2022/08/19 08:35:08;;;;;;;54.13;29.85;;;;;;;21.88;83.81;101468.41;6214217;23;20000;-88
2022/08/19 08:37:33;;;;;;;52.13;29.35;;;;;;;22.24;80.12;101462.69;6241885;23;20083;-87
2022/08/19 08:40:02;;;;;;;51.70;29.75;;;;;;;22.45;79.88;101458.66;6241727;23;20391;-84
2022/08/19 08:42:36;;;;;;;53.72;28.92;;;;;;;22.55;80.22;101468.66;6241853;22;20000;-84
2022/08/19 08:45:14;;;;;;;49.45;29.08;;;;;;;22.60;81.02;101477.16;6241866;23;20430;-84
2022/08/19 08:47:43;;;;;;;51.70;29.50;;;;;;;22.48;77.65;101481.41;6241900;23;20007;-84
2022/08/19 08:50:22;;;;;;;48.33;29.00;;;;;;;22.38;79.62;101477.69;6241777;23;20000;-84
2022/08/19 08:52:52;;;;;;;49.38;29.65;;;;;;;22.27;77.42;101478.34;6241822;23;20101;-84
2022/08/19 08:55:21;;;;;;;49.13;30.55;;;;;;;22.11;77.42;101471.47;6240957;23;20015;-84
2022/08/19 08:57:46;;;;;;;58.05;31.63;;;;;;;21.98;77.45;101480.13;6241807;23;20078;-84
2022/08/19 09:00:27;;;;;;;53.67;31.93;;;;;;;21.98;78.10;101480.13;6241824;23;20004;-84
2022/08/19 09:02:54;;;;;;;61.00;33.67;;;;;;;21.91;77.22;101477.91;6214746;23;19996;-84
2022/08/19 09:05:21;;;;;;;57.47;31.98;;;;;;;21.82;77.32;101478.50;6240635;23;19999;-84
2022/08/19 09:08:00;;;;;;;50.15;29.98;;;;;;;21.80;79.13;101475.09;6241899;23;20004;-84
2022/08/19 09:10:32;;;;;;;47.38;29.42;;;;;;;21.75;77.55;101472.72;6241133;23;20004;-84
2022/08/19 09:13:15;;;;;;;47.15;28.83;;;;;;;21.75;79.24;101471.88;6241883;23;20000;-84
2022/08/19 09:15:47;;;;;;;48.63;28.17;;;;;;;21.68;79.37;101469.63;6241549;23;20000;-84
2022/08/19 09:18:14;;;;;;;50.63;27.17;;;;;;;21.82;78.46;101478.50;6241101;23;20475;-84
2022/08/19 09:20:39;;;;;;;44.75;26.58;;;;;;;22.24;79.81;101473.25;6242095;23;20091;-84
2022/08/19 09:23:05;;;;;;;43.35;26.80;;;;;;;22.55;77.86;101474.81;6241020;23;20020;-84
2022/08/19 09:25:31;;;;;;;45.30;27.13;;;;;;;22.75;75.14;101469.13;6240992;23;20004;-84
2022/08/19 09:27:57;;;;;;;45.95;27.33;;;;;;;22.79;75.72;101475.06;6241574;23;20008;-84
2022/08/19 09:30:28;;;;;;;44.13;27.90;;;;;;;22.78;73.93;101481.31;6241316;23;20113;-84
2022/08/19 09:32:54;;;;;;;50.63;29.15;;;;;;;22.59;73.69;101484.22;6241049;23;20498;-84
2022/08/19 09:35:21;;;;;;;49.83;30.05;;;;;;;22.41;74.33;101480.09;6241239;23;20000;-84
2022/08/19 09:37:49;;;;;;;48.50;30.08;;;;;;;22.29;74.52;101475.59;6241441;23;20007;-84
2022/08/19 09:40:14;;;;;;;46.97;28.75;;;;;;;22.23;74.93;101484.75;6214152;23;20000;-87
2022/08/19 09:42:39;;;;;;;54.15;29.98;;;;;;;22.06;76.61;101484.94;6214371;23;20006;-88
2022/08/19 09:45:05;;;;;;;49.13;29.80;;;;;;;21.90;76.23;101487.66;6241296;23;20131;-88
2022/08/19 09:47:32;;;;;;;47.05;29.60;;;;;;;21.80;76.02;101483.84;6240009;23;20385;-87
2022/08/19 09:49:57;;;;;;;51.97;30.58;;;;;;;21.71;76.68;101492.31;6241397;23;20003;-87
2022/08/19 09:52:23;;;;;;;49.97;30.70;;;;;;;21.63;78.15;101494.59;6214534;23;19997;-87
2022/08/19 09:54:52;;;;;;;51.78;31.17;;;;;;;21.54;78.35;101495.13;6241077;23;20445;-87
2022/08/19 09:57:17;;;;;;;55.20;31.90;;;;;;;21.51;78.86;101490.88;6240859;23;20004;-87
2022/08/19 09:59:44;;;;;;;56.03;30.70;;;;;;;21.55;79.29;101500.31;6241521;23;20011;-87
2022/08/19 10:02:10;;;;;;;60.05;31.83;;;;;;;21.59;78.82;101490.41;6239778;23;20227;-87
2022/08/19 10:07:19;;;;;;;56.20;31.83;;;;;;;21.87;77.24;101497.53;6241282;23;20103;-87
2022/08/19 10:09:45;;;;;;;56.37;30.60;;;;;;;21.91;77.23;101491.97;6241233;23;20031;-87
2022/08/19 10:12:10;;;;;;;55.17;30.73;;;;;;;21.95;76.56;101503.19;6240770;23;20250;-87
2022/08/19 10:14:36;;;;;;;53.00;30.03;;;;;;;22.03;77.65;101495.69;6241045;23;20694;-87
2022/08/19 10:17:02;;;;;;;53.35;29.58;;;;;;;22.11;76.30;101495.25;6240844;23;20231;-87
2022/08/19 10:19:32;;;;;;;52.92;30.08;;;;;;;22.23;76.73;101497.97;6240940;23;20008;-87
2022/08/19 10:21:57;;;;;;;55.45;31.23;;;;;;;22.27;74.66;101495.97;6241756;23;20007;-87
2022/08/19 10:24:24;;;;;;;58.27;31.60;;;;;;;22.31;74.72;101489.56;6239424;23;20016;-87
2022/08/19 10:26:49;;;;;;;57.85;31.17;;;;;;;22.53;75.74;101495.19;6213357;23;20249;-87
2022/08/19 10:29:15;;;;;;;58.47;32.42;;;;;;;22.72;73.83;101497.53;6241157;23;20075;-87
2022/08/19 10:31:41;;;;;;;54.40;32.05;;;;;;;22.88;73.00;101487.69;6240664;23;20013;-87
2022/08/19 10:34:07;;;;;;;54.88;31.83;;;;;;;23.01;74.13;101488.56;6242111;23;20004;-88
2022/08/19 10:36:35;;;;;;;57.25;31.98;;;;;;;23.16;73.98;101489.38;6243600;23;20011;-87
2022/08/19 10:39:07;;;;;;;54.15;31.83;;;;;;;23.23;71.91;101488.00;6243030;23;20484;-87
2022/08/19 10:41:35;;;;;;;57.80;31.83;;;;;;;23.16;71.85;101479.63;6242983;23;20073;-87
2022/08/19 10:44:07;;;;;;;51.05;29.80;;;;;;;23.01;72.69;101487.72;6242933;22;20012;-88
2022/08/19 10:46:37;;;;;;;50.60;29.35;;;;;;;22.88;71.42;101485.03;6243126;23;19997;-87
2022/08/19 10:49:04;;;;;;;52.72;30.08;;;;;;;22.70;72.00;101487.03;6243146;23;20008;-87
2022/08/19 10:54:14;;;;;;;47.92;28.48;;;;;;;22.54;73.94;101494.25;6243303;23;20019;-87
2022/08/19 10:56:51;;;;;;;46.38;27.40;;;;;;;22.57;75.16;101488.78;6215860;23;20001;-87
2022/08/19 10:59:22;;;;;;;48.08;27.80;;;;;;;22.63;74.47;101484.88;6242510;23;20401;-87
2022/08/19 11:01:49;;;;;;;46.88;28.02;;;;;;;22.57;74.14;101487.94;6242632;23;20000;-87
2022/08/19 11:04:17;;;;;;;49.25;28.27;;;;;;;22.55;74.70;101484.53;6242860;23;20008;-87
2022/08/19 11:06:47;;;;;;;49.28;28.58;;;;;;;22.60;75.71;101485.06;6216187;23;20047;-87
2022/08/19 11:09:13;;;;;;;50.42;29.40;;;;;;;22.62;73.51;101476.13;6242963;23;20012;-87
2022/08/19 11:11:42;;;;;;;49.65;28.88;;;;;;;22.70;72.91;101480.91;6216188;23;20420;-88
2022/08/19 11:14:10;;;;;;;49.25;29.05;;;;;;;22.84;72.22;101472.97;6214737;23;20004;-87
2022/08/19 11:16:38;;;;;;;47.65;27.60;;;;;;;22.96;74.59;101468.66;6215616;23;20087;-87
2022/08/19 11:19:04;;;;;;;54.17;29.63;;;;;;;23.06;73.45;101467.13;6242803;23;19996;-87
2022/08/19 11:21:32;;;;;;;54.10;29.60;;;;;;;23.20;72.20;101467.06;6243239;23;20003;-87
2022/08/19 11:24:02;;;;;;;48.22;28.40;;;;;;;23.27;72.05;101473.63;6242637;23;20070;-87
2022/08/19 11:26:29;;;;;;;48.63;27.88;;;;;;;23.39;72.19;101477.28;6242651;23;20004;-87